Time;durP1;ratioP1;P1;durP2;ratioP2;P2;SDS_P1;SDS_P2;PMS_P1;PMS_P2;Temp;Humidity;BMP_temperature;BMP_pressure;BME280_temperature;BME280_humidity;BME280_pressure;Samples;Min_cycle;Max_cycle;Signal;HPM_P1;HPM_P2
2020/12/18 00:00:24;;;;;;;55.25;22.23;;;;;;;;;;8258554;28;20365;-72
2020/12/18 00:04:27;;;;;;;63.55;24.88;;;;;;;;;;8241493;28;20498;-73
2020/12/18 00:08:30;;;;;;;45.67;19.10;;;;;;;;;;8258863;28;20479;-73
2020/12/18 00:12:33;;;;;;;51.15;20.30;;;;;;;;;;8259613;28;20410;-73
2020/12/18 00:16:37;;;;;;;74.20;25.42;;;;;;;;;;8259181;28;20380;-73
2020/12/18 00:20:40;;;;;;;63.38;22.65;;;;;;;;;;8259233;28;20353;-73
2020/12/18 00:24:43;;;;;;;46.38;19.80;;;;;;;;;;8258136;28;20525;-72
2020/12/18 00:28:47;;;;;;;69.63;25.02;;;;;;;;;;8259104;28;20395;-73
2020/12/18 00:32:50;;;;;;;51.33;22.58;;;;;;;;;;8240965;28;20482;-73
2020/12/18 00:36:53;;;;;;;48.95;21.10;;;;;;;;;;8258640;28;20041;-73
2020/12/18 00:40:56;;;;;;;37.25;17.90;;;;;;;;;;8242228;28;20367;-72
2020/12/18 00:45:00;;;;;;;37.47;18.52;;;;;;;;;;8258052;28;20472;-73
2020/12/18 00:49:04;;;;;;;43.25;19.17;;;;;;;;;;8258154;28;20379;-73
2020/12/18 00:53:07;;;;;;;47.67;19.70;;;;;;;;;;8240934;28;20471;-73
2020/12/18 00:57:14;;;;;;;39.35;19.65;;;;;;;;;;8239422;28;20048;-72
2020/12/18 01:01:17;;;;;;;42.22;17.90;;;;;;;;;;8239529;28;20460;-73
2020/12/18 01:05:20;;;;;;;40.47;16.83;;;;;;;;;;8222983;28;20053;-73
2020/12/18 01:09:24;;;;;;;37.92;17.58;;;;;;;;;;8222968;28;20380;-72
2020/12/18 01:13:35;;;;;;;37.95;19.40;;;;;;;;;;8239330;28;20471;-72
2020/12/18 01:17:44;;;;;;;36.38;16.55;;;;;;;;;;8224265;28;20053;-73
2020/12/18 01:21:48;;;;;;;43.33;18.90;;;;;;;;;;8256757;28;20057;-73
2020/12/18 01:25:53;;;;;;;28.55;15.13;;;;;;;;;;8223147;28;20363;-73
2020/12/18 01:29:57;;;;;;;36.97;17.70;;;;;;;;;;8239359;28;20498;-73
2020/12/18 01:34:08;;;;;;;33.92;17.42;;;;;;;;;;8238847;28;20472;-73
2020/12/18 01:38:11;;;;;;;33.05;15.55;;;;;;;;;;8255758;28;20391;-73
2020/12/18 01:42:18;;;;;;;31.60;17.45;;;;;;;;;;8238740;28;20491;-73
2020/12/18 01:46:27;;;;;;;32.70;17.08;;;;;;;;;;8238757;28;20367;-73
2020/12/18 01:50:32;;;;;;;36.47;17.38;;;;;;;;;;8237384;28;20364;-73
2020/12/18 01:54:36;;;;;;;39.83;17.23;;;;;;;;;;8238610;28;20476;-73
2020/12/18 01:58:44;;;;;;;35.55;17.55;;;;;;;;;;8238791;28;20382;-73
2020/12/18 02:02:58;;;;;;;29.42;15.15;;;;;;;;;;8223608;28;20049;-73
2020/12/18 02:07:31;;;;;;;26.85;14.95;;;;;;;;;;8237897;28;20349;-73
2020/12/18 02:11:54;;;;;;;30.40;13.85;;;;;;;;;;8255993;28;20470;-74
2020/12/18 02:15:57;;;;;;;35.40;16.40;;;;;;;;;;8222395;28;20464;-73
2020/12/18 02:20:10;;;;;;;32.35;16.17;;;;;;;;;;8243686;28;20462;-73
2020/12/18 02:24:26;;;;;;;36.60;18.85;;;;;;;;;;8244098;28;20363;-73
2020/12/18 02:28:37;;;;;;;35.95;16.05;;;;;;;;;;8244136;28;20468;-74
2020/12/18 02:32:41;;;;;;;38.92;17.88;;;;;;;;;;8228883;28;20380;-73
2020/12/18 02:36:45;;;;;;;39.47;18.27;;;;;;;;;;8243236;28;20387;-73
2020/12/18 02:40:50;;;;;;;34.17;16.42;;;;;;;;;;8243760;28;20494;-73
2020/12/18 02:45:22;;;;;;;30.80;15.13;;;;;;;;;;8235612;28;20379;-73
2020/12/18 02:49:45;;;;;;;38.13;17.48;;;;;;;;;;8261436;28;20395;-73
2020/12/18 02:54:06;;;;;;;33.13;16.23;;;;;;;;;;8244057;28;20379;-73
2020/12/18 02:58:34;;;;;;;35.85;17.38;;;;;;;;;;8243049;28;20376;-73
2020/12/18 03:02:38;;;;;;;38.60;18.70;;;;;;;;;;8243608;28;20499;-73
2020/12/18 03:06:43;;;;;;;42.15;19.63;;;;;;;;;;8242666;28;20387;-73
2020/12/18 03:10:48;;;;;;;41.80;19.73;;;;;;;;;;8261315;28;20387;-73
2020/12/18 03:14:52;;;;;;;45.95;18.08;;;;;;;;;;8261141;28;20415;-73
2020/12/18 03:19:18;;;;;;;33.60;16.10;;;;;;;;;;8223072;28;20475;-73
2020/12/18 03:23:24;;;;;;;40.47;18.77;;;;;;;;;;8242714;28;20040;-73
2020/12/18 03:27:48;;;;;;;41.17;18.27;;;;;;;;;;8242178;28;20475;-73
2020/12/18 03:31:51;;;;;;;36.20;18.27;;;;;;;;;;8241369;28;20356;-73
2020/12/18 03:35:54;;;;;;;38.63;17.58;;;;;;;;;;8242233;28;20037;-75
2020/12/18 03:39:58;;;;;;;37.38;17.77;;;;;;;;;;8242222;28;20486;-73
2020/12/18 03:44:05;;;;;;;44.88;18.95;;;;;;;;;;8241884;28;20048;-73
2020/12/18 03:48:10;;;;;;;46.20;19.05;;;;;;;;;;8241612;28;20049;-73
2020/12/18 03:52:21;;;;;;;53.30;21.08;;;;;;;;;;8241861;28;20468;-73
2020/12/18 03:56:28;;;;;;;47.25;19.88;;;;;;;;;;8240773;28;20377;-73
2020/12/18 04:00:52;;;;;;;49.55;19.95;;;;;;;;;;8241448;28;20373;-73
2020/12/18 04:04:55;;;;;;;40.17;18.85;;;;;;;;;;8240644;28;20486;-74
2020/12/18 04:08:58;;;;;;;45.72;20.83;;;;;;;;;;8241426;28;20481;-73
2020/12/18 04:13:09;;;;;;;41.78;18.33;;;;;;;;;;8241042;28;20045;-73
2020/12/18 04:17:12;;;;;;;41.38;20.05;;;;;;;;;;8224987;28;20494;-73
2020/12/18 04:21:18;;;;;;;43.97;18.05;;;;;;;;;;8241480;28;20349;-73
2020/12/18 04:25:31;;;;;;;39.88;17.95;;;;;;;;;;8240547;28;20079;-73
2020/12/18 04:29:34;;;;;;;46.65;20.67;;;;;;;;;;8257984;28;20480;-73
2020/12/18 04:33:38;;;;;;;42.90;19.70;;;;;;;;;;8225084;28;20464;-73
2020/12/18 04:37:41;;;;;;;41.65;20.23;;;;;;;;;;8240233;28;20049;-73
2020/12/18 04:42:08;;;;;;;43.42;19.67;;;;;;;;;;8249517;28;20490;-73
2020/12/18 04:46:18;;;;;;;47.55;20.48;;;;;;;;;;8239196;28;20411;-73
2020/12/18 04:50:24;;;;;;;69.35;24.17;;;;;;;;;;8240265;28;20041;-73
2020/12/18 04:54:51;;;;;;;55.80;21.75;;;;;;;;;;8206880;28;20364;-73
2020/12/18 04:59:17;;;;;;;284.10;136.32;;;;;;;;;;8243031;28;20478;-74
2020/12/18 05:03:35;;;;;;;129.40;66.70;;;;;;;;;;8257676;28;20375;-74
2020/12/18 05:07:45;;;;;;;115.28;61.97;;;;;;;;;;8224350;28;20053;-74
2020/12/18 05:11:50;;;;;;;96.70;35.75;;;;;;;;;;8239446;28;20489;-73
2020/12/18 05:15:54;;;;;;;51.92;23.20;;;;;;;;;;8239376;28;20459;-74
2020/12/18 05:20:18;;;;;;;42.88;20.05;;;;;;;;;;8257142;28;20402;-74
2020/12/18 05:24:41;;;;;;;43.80;19.70;;;;;;;;;;8256924;28;20467;-74
2020/12/18 05:28:48;;;;;;;44.28;18.98;;;;;;;;;;8223607;28;20388;-74
2020/12/18 05:32:53;;;;;;;42.75;21.48;;;;;;;;;;8238571;28;20057;-74
2020/12/18 05:37:04;;;;;;;431.30;87.60;;;;;;;;;;8239119;28;20375;-74
2020/12/18 05:41:27;;;;;;;507.42;98.43;;;;;;;;;;8242466;28;20381;-74
2020/12/18 05:45:30;;;;;;;334.88;66.47;;;;;;;;;;8239040;28;20068;-74
2020/12/18 05:50:00;;;;;;;490.10;91.32;;;;;;;;;;8210973;28;20471;-74
2020/12/18 05:54:14;;;;;;;522.90;102.70;;;;;;;;;;8274383;28;20356;-73
2020/12/18 05:58:39;;;;;;;387.92;74.00;;;;;;;;;;8278332;28;20520;-74
2020/12/18 06:03:00;;;;;;;663.20;134.00;;;;;;;;;;8263032;28;20071;-74
2020/12/18 06:07:14;;;;;;;455.52;84.40;;;;;;;;;;8276671;28;20386;-75
2020/12/18 06:11:50;;;;;;;339.42;62.03;;;;;;;;;;8261321;28;20387;-73
2020/12/18 06:15:55;;;;;;;479.98;91.43;;;;;;;;;;8277393;28;20455;-74
2020/12/18 06:20:15;;;;;;;303.92;58.72;;;;;;;;;;8276860;28;20455;-74
2020/12/18 06:24:22;;;;;;;391.52;67.20;;;;;;;;;;8260827;28;20375;-74
2020/12/18 06:28:52;;;;;;;256.67;48.88;;;;;;;;;;8263222;28;20455;-74
2020/12/18 06:32:56;;;;;;;204.02;43.80;;;;;;;;;;8261135;28;20471;-74
2020/12/18 06:37:02;;;;;;;424.30;74.05;;;;;;;;;;8276995;28;20475;-74
2020/12/18 06:41:26;;;;;;;482.05;92.68;;;;;;;;;;8279892;28;20486;-74
2020/12/18 06:46:04;;;;;;;638.53;125.97;;;;;;;;;;8294470;28;20375;-74
2020/12/18 06:50:34;;;;;;;217.18;45.92;;;;;;;;;;8293845;28;20451;-74
2020/12/18 06:54:58;;;;;;;410.20;74.43;;;;;;;;;;8292311;28;20340;-74
2020/12/18 06:59:24;;;;;;;177.23;40.38;;;;;;;;;;8293529;28;20351;-74
2020/12/18 07:03:44;;;;;;;346.65;65.90;;;;;;;;;;8293993;28;20071;-74
2020/12/18 07:07:49;;;;;;;112.50;32.55;;;;;;;;;;8292565;28;20371;-74
2020/12/18 07:12:02;;;;;;;370.23;71.53;;;;;;;;;;8292521;28;20040;-74
2020/12/18 07:16:08;;;;;;;265.57;54.47;;;;;;;;;;8275334;28;20044;-73
2020/12/18 07:20:13;;;;;;;275.65;53.38;;;;;;;;;;8293314;28;20463;-74
2020/12/18 07:24:16;;;;;;;216.85;47.75;;;;;;;;;;8259090;28;20080;-74
2020/12/18 07:28:22;;;;;;;200.05;45.55;;;;;;;;;;8292802;28;20374;-74
2020/12/18 07:32:28;;;;;;;;;;;;;;;;;;8224312;28;20384;-73
2020/12/18 07:36:32;;;;;;;194.18;39.55;;;;;;;;;;8223834;28;20361;-74
2020/12/18 07:40:38;;;;;;;174.05;38.75;;;;;;;;;;8206649;28;20373;-73
2020/12/18 07:44:41;;;;;;;253.75;51.58;;;;;;;;;;8223164;28;20523;-74
2020/12/18 07:48:46;;;;;;;226.82;52.38;;;;;;;;;;8222844;28;20487;-74
2020/12/18 07:52:48;;;;;;;192.02;43.60;;;;;;;;;;8190422;28;20372;-74
2020/12/18 07:57:08;;;;;;;178.43;41.63;;;;;;;;;;8223010;28;20472;-74
2020/12/18 08:01:17;;;;;;;130.35;35.47;;;;;;;;;;8206305;28;20490;-74
2020/12/18 08:05:23;;;;;;;111.32;34.92;;;;;;;;;;8156805;28;20362;-74
2020/12/18 08:09:26;;;;;;;127.60;38.08;;;;;;;;;;8260293;28;20493;-73
2020/12/18 08:13:30;;;;;;;124.28;37.70;;;;;;;;;;8290617;28;20479;-74
2020/12/18 08:17:34;;;;;;;94.90;30.98;;;;;;;;;;8273102;28;20479;-74
2020/12/18 08:21:45;;;;;;;162.05;61.10;;;;;;;;;;8273129;28;20390;-74
2020/12/18 08:25:49;;;;;;;183.20;58.25;;;;;;;;;;8290988;28;20374;-73
2020/12/18 08:29:56;;;;;;;128.70;44.58;;;;;;;;;;8274135;28;20057;-74
2020/12/18 08:34:09;;;;;;;117.28;41.78;;;;;;;;;;8273630;28;20409;-74
2020/12/18 08:38:12;;;;;;;95.13;36.42;;;;;;;;;;8273188;28;20459;-74
2020/12/18 08:42:32;;;;;;;;;;;;;;;;;;6718671;28;10023786;-74
2020/12/18 08:46:36;;;;;;;71.10;31.00;;;;;;;;;;7239937;28;10003618;-74
2020/12/18 08:50:39;;;;;;;116.65;42.13;;;;;;;;;;8290417;28;20074;-74
2020/12/18 08:54:42;;;;;;;56.50;25.52;;;;;;;;;;8290639;28;20485;-74
2020/12/18 08:58:46;;;;;;;110.18;42.60;;;;;;;;;;8290332;28;20378;-74
2020/12/18 09:02:48;;;;;;;93.15;35.90;;;;;;;;;;8288808;28;20473;-73
2020/12/18 09:06:52;;;;;;;79.07;31.25;;;;;;;;;;8289335;28;20471;-74
2020/12/18 09:10:56;;;;;;;73.82;30.50;;;;;;;;;;8238653;28;20366;-74
2020/12/18 09:15:21;;;;;;;85.05;33.72;;;;;;;;;;8288916;28;20434;-74
2020/12/18 09:19:24;;;;;;;74.00;31.80;;;;;;;;;;8289149;28;20459;-74
2020/12/18 09:23:31;;;;;;;63.90;25.98;;;;;;;;;;8290087;28;20356;-74
2020/12/18 09:27:35;;;;;;;62.75;26.48;;;;;;;;;;8252909;28;20382;-74
2020/12/18 09:31:37;;;;;;;72.70;31.65;;;;;;;;;;8271614;28;20352;-74
2020/12/18 09:35:42;;;;;;;74.32;31.98;;;;;;;;;;8288864;28;20041;-74
2020/12/18 09:39:46;;;;;;;64.78;28.35;;;;;;;;;;8288736;28;20071;-74
2020/12/18 09:43:50;;;;;;;78.93;32.13;;;;;;;;;;8255492;28;20387;-74
2020/12/18 09:47:53;;;;;;;76.97;30.70;;;;;;;;;;8289177;28;20414;-74
2020/12/18 09:51:56;;;;;;;73.18;27.80;;;;;;;;;;8289527;28;20474;-74
2020/12/18 09:55:59;;;;;;;78.15;31.42;;;;;;;;;;8271706;28;20384;-74
2020/12/18 10:00:07;;;;;;;76.43;32.70;;;;;;;;;;8287923;28;20481;-73
2020/12/18 10:04:15;;;;;;;80.88;32.58;;;;;;;;;;8272450;28;20036;-74
2020/12/18 10:08:18;;;;;;;82.28;35.50;;;;;;;;;;8271022;28;20106;-74
2020/12/18 10:12:21;;;;;;;75.45;28.92;;;;;;;;;;8289142;28;20378;-74
2020/12/18 10:16:24;;;;;;;87.03;34.72;;;;;;;;;;8289255;28;20367;-74
2020/12/18 10:20:28;;;;;;;69.50;28.55;;;;;;;;;;8289116;28;20049;-74
2020/12/18 10:24:31;;;;;;;80.47;34.20;;;;;;;;;;8288715;28;20391;-74
2020/12/18 10:28:35;;;;;;;107.78;45.78;;;;;;;;;;8270802;28;20409;-74
2020/12/18 10:32:38;;;;;;;88.15;42.00;;;;;;;;;;8288508;28;20417;-74
2020/12/18 10:36:41;;;;;;;79.03;34.83;;;;;;;;;;8288375;28;20485;-74
2020/12/18 10:40:43;;;;;;;76.43;32.22;;;;;;;;;;8292892;28;20471;-74
2020/12/18 10:44:47;;;;;;;285.05;152.25;;;;;;;;;;8294599;28;20479;-74
2020/12/18 10:48:50;;;;;;;86.10;38.08;;;;;;;;;;8244016;28;20497;-75
2020/12/18 10:52:53;;;;;;;79.68;32.72;;;;;;;;;;8292753;28;20493;-74
2020/12/18 10:56:56;;;;;;;89.00;41.92;;;;;;;;;;8276118;28;20368;-74
2020/12/18 11:00:59;;;;;;;87.25;36.20;;;;;;;;;;8241640;28;20390;-74
2020/12/18 11:05:02;;;;;;;92.68;38.67;;;;;;;;;;8259757;28;20437;-74
2020/12/18 11:09:06;;;;;;;86.45;37.83;;;;;;;;;;8293921;28;20497;-74
2020/12/18 11:13:09;;;;;;;95.55;40.85;;;;;;;;;;8293497;28;20070;-74
2020/12/18 11:17:12;;;;;;;84.90;36.75;;;;;;;;;;8258774;28;20383;-74
2020/12/18 11:21:16;;;;;;;96.07;37.70;;;;;;;;;;8293583;28;20454;-73
2020/12/18 11:25:19;;;;;;;84.30;37.65;;;;;;;;;;8258190;28;20455;-74
2020/12/18 11:29:22;;;;;;;90.38;38.60;;;;;;;;;;8292838;28;20417;-74
2020/12/18 11:33:25;;;;;;;90.20;40.17;;;;;;;;;;8292054;28;20382;-74
2020/12/18 11:37:28;;;;;;;115.18;46.00;;;;;;;;;;8293228;28;20363;-74
2020/12/18 11:41:31;;;;;;;169.27;59.90;;;;;;;;;;8293131;28;20501;-74
2020/12/18 11:45:34;;;;;;;107.70;42.38;;;;;;;;;;8292845;28;20379;-74
2020/12/18 11:49:38;;;;;;;105.25;42.22;;;;;;;;;;8290661;28;20455;-74
2020/12/18 11:53:41;;;;;;;114.00;46.13;;;;;;;;;;8291858;28;20368;-73
2020/12/18 11:57:44;;;;;;;107.20;45.85;;;;;;;;;;8292545;28;20498;-74
2020/12/18 12:01:47;;;;;;;93.55;40.40;;;;;;;;;;8274537;28;20458;-74
2020/12/18 12:05:53;;;;;;;87.30;39.20;;;;;;;;;;8275537;28;20379;-74
2020/12/18 12:09:58;;;;;;;90.82;42.15;;;;;;;;;;8292150;28;20477;-74
2020/12/18 12:14:01;;;;;;;104.38;47.45;;;;;;;;;;8271841;28;20044;-74
2020/12/18 12:18:04;;;;;;;106.10;43.90;;;;;;;;;;8273513;28;20475;-74
2020/12/18 12:22:08;;;;;;;91.90;44.55;;;;;;;;;;8291543;28;20072;-74
2020/12/18 12:26:11;;;;;;;93.57;40.92;;;;;;;;;;8291335;28;20379;-73
2020/12/18 12:30:15;;;;;;;82.28;34.03;;;;;;;;;;8291409;28;20470;-74
2020/12/18 12:34:18;;;;;;;78.65;36.65;;;;;;;;;;8290818;28;20480;-74
2020/12/18 12:38:21;;;;;;;70.65;33.00;;;;;;;;;;8290063;28;20491;-74
2020/12/18 12:42:24;;;;;;;71.18;32.85;;;;;;;;;;8271746;28;20410;-74
2020/12/18 12:46:27;;;;;;;83.85;36.20;;;;;;;;;;8289882;28;20391;-74
2020/12/18 12:50:30;;;;;;;82.10;35.70;;;;;;;;;;8255744;28;20349;-74
2020/12/18 12:54:33;;;;;;;78.70;36.75;;;;;;;;;;8290346;28;20496;-74
2020/12/18 12:58:36;;;;;;;88.30;39.20;;;;;;;;;;8290094;28;20382;-74
2020/12/18 13:02:39;;;;;;;90.00;37.65;;;;;;;;;;8289572;28;20364;-74
2020/12/18 13:06:42;;;;;;;98.88;43.78;;;;;;;;;;8272467;28;20390;-74
2020/12/18 13:10:46;;;;;;;88.72;40.83;;;;;;;;;;8272121;28;20479;-74
2020/12/18 13:14:49;;;;;;;76.68;33.20;;;;;;;;;;8290102;28;20418;-74
2020/12/18 13:18:52;;;;;;;78.47;37.53;;;;;;;;;;8290209;28;20075;-74
2020/12/18 13:22:55;;;;;;;82.90;35.40;;;;;;;;;;8289651;28;20359;-74
2020/12/18 13:26:59;;;;;;;147.10;51.05;;;;;;;;;;8289610;28;20485;-74
2020/12/18 13:31:03;;;;;;;100.57;42.22;;;;;;;;;;8289760;28;20363;-74
2020/12/18 13:35:06;;;;;;;72.53;30.83;;;;;;;;;;8289910;28;20471;-74
2020/12/18 13:39:10;;;;;;;99.57;41.85;;;;;;;;;;8289197;28;20052;-74
2020/12/18 13:43:13;;;;;;;77.32;35.22;;;;;;;;;;8287666;28;20066;-74
2020/12/18 13:47:17;;;;;;;67.05;32.60;;;;;;;;;;8288770;28;20467;-74
2020/12/18 13:51:19;;;;;;;78.43;35.10;;;;;;;;;;8289209;28;20463;-74
2020/12/18 13:55:23;;;;;;;61.88;29.65;;;;;;;;;;8308431;28;20492;-75
2020/12/18 13:59:26;;;;;;;57.15;28.02;;;;;;;;;;8323280;28;20538;-74
2020/12/18 14:03:29;;;;;;;71.10;30.23;;;;;;;;;;8238537;28;20485;-74
2020/12/18 14:07:33;;;;;;;65.55;29.83;;;;;;;;;;8288669;28;20494;-73
2020/12/18 14:11:39;;;;;;;77.82;32.97;;;;;;;;;;8271246;28;20451;-74
2020/12/18 14:15:42;;;;;;;73.35;30.52;;;;;;;;;;8275248;28;20045;-74
2020/12/18 14:19:45;;;;;;;66.88;28.25;;;;;;;;;;8277853;28;20405;-74
2020/12/18 14:23:49;;;;;;;57.70;25.35;;;;;;;;;;8260809;28;20379;-73
2020/12/18 14:27:52;;;;;;;54.88;26.60;;;;;;;;;;8273094;28;20052;-73
2020/12/18 14:31:55;;;;;;;56.38;25.17;;;;;;;;;;8256610;28;20464;-74
2020/12/18 14:35:58;;;;;;;76.25;29.38;;;;;;;;;;8260210;28;20480;-73
2020/12/18 14:40:03;;;;;;;64.30;24.95;;;;;;;;;;8260821;28;20364;-73
2020/12/18 14:44:07;;;;;;;88.00;28.67;;;;;;;;;;8281555;28;20047;-73
2020/12/18 14:48:10;;;;;;;56.33;23.85;;;;;;;;;;8265031;28;20475;-73
2020/12/18 14:52:14;;;;;;;58.60;25.73;;;;;;;;;;8260873;28;20364;-73
2020/12/18 14:56:17;;;;;;;99.68;36.40;;;;;;;;;;8257303;28;20378;-73
2020/12/18 15:00:20;;;;;;;74.20;31.08;;;;;;;;;;8268324;28;20500;-73
2020/12/18 15:04:24;;;;;;;76.07;34.40;;;;;;;;;;8269669;28;20071;-73
2020/12/18 15:08:28;;;;;;;74.63;32.88;;;;;;;;;;8269565;28;20403;-73
2020/12/18 15:12:31;;;;;;;84.80;33.28;;;;;;;;;;8256388;28;20593;-72
2020/12/18 15:16:34;;;;;;;71.93;29.13;;;;;;;;;;8257253;28;20467;-72
2020/12/18 15:20:37;;;;;;;63.75;27.52;;;;;;;;;;8266988;28;20483;-72
2020/12/18 15:24:40;;;;;;;77.30;29.45;;;;;;;;;;8280987;28;20512;-73
2020/12/18 15:28:44;;;;;;;83.15;32.65;;;;;;;;;;8289790;28;20499;-72
2020/12/18 15:32:48;;;;;;;100.18;41.00;;;;;;;;;;8291891;28;20364;-72
2020/12/18 15:36:51;;;;;;;90.50;40.38;;;;;;;;;;8291313;28;20079;-73
2020/12/18 15:40:55;;;;;;;78.30;36.03;;;;;;;;;;8273080;28;20493;-73
2020/12/18 15:44:59;;;;;;;99.75;41.92;;;;;;;;;;8289867;28;20049;-72
2020/12/18 15:49:02;;;;;;;84.97;39.00;;;;;;;;;;8271195;28;20479;-72
2020/12/18 15:53:05;;;;;;;80.05;35.25;;;;;;;;;;8290600;28;20486;-72
2020/12/18 15:57:08;;;;;;;80.75;31.55;;;;;;;;;;8260484;28;20414;-72
2020/12/18 16:01:24;;;;;;;93.43;39.97;;;;;;;;;;8274580;28;20455;-73
2020/12/18 16:05:28;;;;;;;107.40;41.83;;;;;;;;;;8271184;28;20066;-73
2020/12/18 16:09:32;;;;;;;115.97;44.55;;;;;;;;;;8254296;28;20487;-73
2020/12/18 16:13:35;;;;;;;129.38;46.92;;;;;;;;;;8274062;28;20471;-73
2020/12/18 16:17:39;;;;;;;131.90;51.92;;;;;;;;;;8254434;28;20056;-73
2020/12/18 16:21:44;;;;;;;136.02;49.78;;;;;;;;;;8233683;28;20360;-73
2020/12/18 16:25:47;;;;;;;152.40;50.30;;;;;;;;;;8270414;28;20382;-73
2020/12/18 16:29:52;;;;;;;134.20;44.88;;;;;;;;;;8274121;28;20533;-74
2020/12/18 16:33:55;;;;;;;121.57;44.17;;;;;;;;;;8273447;28;20475;-73
2020/12/18 16:37:59;;;;;;;129.07;50.90;;;;;;;;;;8270346;28;20352;-73
2020/12/18 16:42:06;;;;;;;173.07;63.88;;;;;;;;;;8272386;28;20383;-72
2020/12/18 16:46:09;;;;;;;156.13;60.38;;;;;;;;;;8253483;28;20479;-72
2020/12/18 16:50:12;;;;;;;156.98;63.70;;;;;;;;;;8268951;28;20486;-72
2020/12/18 16:54:17;;;;;;;199.90;79.20;;;;;;;;;;8254766;28;20407;-72
2020/12/18 16:58:21;;;;;;;181.85;71.13;;;;;;;;;;8266035;28;20454;-73
2020/12/18 17:02:26;;;;;;;170.57;70.47;;;;;;;;;;8272183;28;20509;-73
2020/12/18 17:06:29;;;;;;;184.55;73.03;;;;;;;;;;8251834;28;20052;-73
2020/12/18 17:10:32;;;;;;;192.05;72.20;;;;;;;;;;8272043;28;20379;-73
2020/12/18 17:14:36;;;;;;;192.25;80.97;;;;;;;;;;8272018;28;20353;-73
2020/12/18 17:18:39;;;;;;;199.07;78.18;;;;;;;;;;8270048;28;20480;-74
2020/12/18 17:22:42;;;;;;;181.25;74.20;;;;;;;;;;8251475;28;20356;-72
2020/12/18 17:26:46;;;;;;;175.90;75.45;;;;;;;;;;8250128;28;20382;-71
2020/12/18 17:30:52;;;;;;;181.90;70.00;;;;;;;;;;8272221;28;20455;-72
2020/12/18 17:34:57;;;;;;;199.00;67.75;;;;;;;;;;8275944;28;20413;-72
2020/12/18 17:39:01;;;;;;;217.57;68.43;;;;;;;;;;8253538;28;20407;-73
2020/12/18 17:43:04;;;;;;;206.65;65.60;;;;;;;;;;8262179;28;20376;-73
2020/12/18 17:47:08;;;;;;;199.30;68.35;;;;;;;;;;8288045;28;20459;-72
2020/12/18 17:51:21;;;;;;;208.43;64.88;;;;;;;;;;8259681;28;20466;-73
2020/12/18 17:55:24;;;;;;;225.93;70.72;;;;;;;;;;8287123;28;20475;-74
2020/12/18 17:59:27;;;;;;;186.30;63.63;;;;;;;;;;8285722;28;20459;-73
2020/12/18 18:03:30;;;;;;;316.08;76.85;;;;;;;;;;8308223;28;20480;-74
2020/12/18 18:07:34;;;;;;;198.60;69.10;;;;;;;;;;8286325;28;20386;-73
2020/12/18 18:11:38;;;;;;;234.23;83.07;;;;;;;;;;8294889;28;20475;-74
2020/12/18 18:15:41;;;;;;;288.35;80.47;;;;;;;;;;8293680;28;20479;-74
2020/12/18 18:19:47;;;;;;;339.85;86.60;;;;;;;;;;8262219;28;20487;-73
2020/12/18 18:23:50;;;;;;;392.80;91.25;;;;;;;;;;8260449;28;20395;-73
2020/12/18 18:27:53;;;;;;;339.48;84.30;;;;;;;;;;8260385;28;20045;-73
2020/12/18 18:31:56;;;;;;;483.88;118.68;;;;;;;;;;8213772;28;20462;-73
2020/12/18 18:36:03;;;;;;;435.15;120.43;;;;;;;;;;8212126;28;20455;-73
2020/12/18 18:40:17;;;;;;;592.50;168.75;;;;;;;;;;8261220;28;20414;-73
2020/12/18 18:44:39;;;;;;;447.70;121.55;;;;;;;;;;8274500;28;20476;-73
2020/12/18 18:48:42;;;;;;;310.83;83.90;;;;;;;;;;8257910;28;20045;-73
2020/12/18 18:52:49;;;;;;;249.60;79.90;;;;;;;;;;8244253;28;20464;-73
2020/12/18 18:56:53;;;;;;;261.08;73.15;;;;;;;;;;8244372;28;20049;-73
2020/12/18 19:01:00;;;;;;;398.08;93.47;;;;;;;;;;8261437;28;20049;-72
2020/12/18 19:05:03;;;;;;;365.50;90.63;;;;;;;;;;8260139;28;20459;-73
2020/12/18 19:09:09;;;;;;;362.27;94.47;;;;;;;;;;8259816;28;20468;-73
2020/12/18 19:13:13;;;;;;;432.15;115.18;;;;;;;;;;8260626;28;20402;-73
2020/12/18 19:17:17;;;;;;;349.77;96.97;;;;;;;;;;8260517;28;20490;-73
2020/12/18 19:21:25;;;;;;;414.02;120.00;;;;;;;;;;8260813;28;20471;-73
2020/12/18 19:25:28;;;;;;;823.25;229.55;;;;;;;;;;8242751;28;20364;-73
2020/12/18 19:29:31;;;;;;;439.00;126.85;;;;;;;;;;8260476;28;20414;-74
2020/12/18 19:33:35;;;;;;;611.30;170.48;;;;;;;;;;8242898;28;20045;-74
2020/12/18 19:37:43;;;;;;;636.80;170.23;;;;;;;;;;8260375;28;20494;-74
2020/12/18 19:41:46;;;;;;;547.97;141.50;;;;;;;;;;8203145;28;20380;-74
2020/12/18 19:45:50;;;;;;;447.88;117.35;;;;;;;;;;8172942;28;20550;-74
2020/12/18 19:49:55;;;;;;;214.02;70.72;;;;;;;;;;8212738;28;20471;-74
2020/12/18 19:53:59;;;;;;;141.00;56.13;;;;;;;;;;8195752;28;20064;-74
2020/12/18 19:58:03;;;;;;;215.02;69.95;;;;;;;;;;8259273;28;20485;-74
2020/12/18 20:02:10;;;;;;;156.52;56.42;;;;;;;;;;8274712;28;20483;-74
2020/12/18 20:06:14;;;;;;;300.27;88.27;;;;;;;;;;8241781;28;20438;-73
2020/12/18 20:10:18;;;;;;;274.83;89.85;;;;;;;;;;8259438;28;20569;-74
2020/12/18 20:14:23;;;;;;;279.33;88.38;;;;;;;;;;8224832;28;20353;-74
2020/12/18 20:18:27;;;;;;;213.45;71.82;;;;;;;;;;8273225;28;20463;-75
2020/12/18 20:22:30;;;;;;;822.70;242.35;;;;;;;;;;8259099;28;20455;-74
2020/12/18 20:26:33;;;;;;;735.13;220.80;;;;;;;;;;8242840;28;20057;-73
2020/12/18 20:30:37;;;;;;;740.05;204.30;;;;;;;;;;8240397;28;20481;-74
2020/12/18 20:34:42;;;;;;;1999.90;703.28;;;;;;;;;;8240288;28;20045;-73
2020/12/18 20:38:45;;;;;;;1648.88;402.02;;;;;;;;;;8256945;28;20045;-73
2020/12/18 20:42:48;;;;;;;1999.90;490.10;;;;;;;;;;8223202;28;20365;-74
2020/12/18 20:46:52;;;;;;;551.72;146.00;;;;;;;;;;8240229;28;20048;-73
2020/12/18 20:50:57;;;;;;;436.77;111.55;;;;;;;;;;8239726;28;20414;-74
2020/12/18 20:55:02;;;;;;;274.23;78.32;;;;;;;;;;8257590;28;20379;-74
2020/12/18 20:59:05;;;;;;;389.75;134.32;;;;;;;;;;8257819;28;20407;-74
2020/12/18 21:03:08;;;;;;;473.08;147.15;;;;;;;;;;8257507;28;20471;-74
2020/12/18 21:07:11;;;;;;;532.55;189.40;;;;;;;;;;8272112;28;20456;-73
2020/12/18 21:11:14;;;;;;;665.60;201.82;;;;;;;;;;8257690;28;20436;-74
2020/12/18 21:15:18;;;;;;;598.95;180.27;;;;;;;;;;8239048;28;20502;-72
2020/12/18 21:19:21;;;;;;;571.65;182.32;;;;;;;;;;8256040;28;20467;-73
2020/12/18 21:23:23;;;;;;;443.05;155.65;;;;;;;;;;8256342;28;20053;-74
2020/12/18 21:27:27;;;;;;;440.00;167.65;;;;;;;;;;8257116;28;20487;-73
2020/12/18 21:31:35;;;;;;;483.08;172.27;;;;;;;;;;8223459;28;20407;-74
2020/12/18 21:35:40;;;;;;;413.67;134.85;;;;;;;;;;8257041;28;20419;-74
2020/12/18 21:39:44;;;;;;;459.27;141.82;;;;;;;;;;8256598;28;20376;-74
2020/12/18 21:43:50;;;;;;;471.65;134.35;;;;;;;;;;8256590;28;20364;-74
2020/12/18 21:47:54;;;;;;;502.05;144.15;;;;;;;;;;8256412;28;20459;-74
2020/12/18 21:51:57;;;;;;;689.50;190.00;;;;;;;;;;8223113;28;20375;-74
2020/12/18 21:56:01;;;;;;;634.55;181.07;;;;;;;;;;8257116;28;20464;-74
2020/12/18 22:00:05;;;;;;;518.42;127.32;;;;;;;;;;8256351;28;20471;-74
2020/12/18 22:04:09;;;;;;;575.05;162.70;;;;;;;;;;8238475;28;20414;-72
2020/12/18 22:08:12;;;;;;;461.10;135.95;;;;;;;;;;8255838;28;20483;-73
2020/12/18 22:12:18;;;;;;;398.52;95.25;;;;;;;;;;8255419;28;20414;-73
2020/12/18 22:16:21;;;;;;;386.55;93.40;;;;;;;;;;8256175;28;20368;-73
2020/12/18 22:20:24;;;;;;;283.23;81.55;;;;;;;;;;8256072;28;20407;-73
2020/12/18 22:24:40;;;;;;;314.98;73.13;;;;;;;;;;8255544;28;20363;-72
2020/12/18 22:28:43;;;;;;;335.05;82.63;;;;;;;;;;8256070;28;20395;-73
2020/12/18 22:32:46;;;;;;;319.27;71.07;;;;;;;;;;8255820;28;20487;-73
2020/12/18 22:36:52;;;;;;;338.67;64.57;;;;;;;;;;8259977;28;20461;-73
2020/12/18 22:40:57;;;;;;;329.60;59.40;;;;;;;;;;8275498;28;20491;-73
2020/12/18 22:45:01;;;;;;;314.50;58.45;;;;;;;;;;8244279;28;20459;-73
2020/12/18 22:49:04;;;;;;;287.20;57.40;;;;;;;;;;8243984;28;20489;-73
2020/12/18 22:53:07;;;;;;;310.25;52.50;;;;;;;;;;8261830;28;20467;-73
2020/12/18 22:57:10;;;;;;;249.55;50.50;;;;;;;;;;8261740;28;20131;-74
2020/12/18 23:01:13;;;;;;;287.95;52.22;;;;;;;;;;8261049;28;20479;-74
2020/12/18 23:05:34;;;;;;;260.30;52.60;;;;;;;;;;8246005;28;20483;-74
2020/12/18 23:09:37;;;;;;;328.52;55.80;;;;;;;;;;8261150;28;20392;-74
2020/12/18 23:13:40;;;;;;;245.50;51.22;;;;;;;;;;8242866;28;20460;-74
2020/12/18 23:17:43;;;;;;;242.20;47.92;;;;;;;;;;8260653;28;20464;-74
2020/12/18 23:21:46;;;;;;;315.23;55.13;;;;;;;;;;8259563;28;20466;-74
2020/12/18 23:25:50;;;;;;;310.42;51.05;;;;;;;;;;8242862;28;20072;-74
2020/12/18 23:29:53;;;;;;;236.90;48.15;;;;;;;;;;8275710;28;20387;-74
2020/12/18 23:33:56;;;;;;;291.77;49.70;;;;;;;;;;8260128;28;20480;-74
2020/12/18 23:38:00;;;;;;;302.45;49.08;;;;;;;;;;8259032;28;20522;-74